createdAt,value
2018-01-05T00:01:33.054Z,1.07
2018-01-05T00:04:00.121Z,0.80
2018-01-05T00:06:26.453Z,1.20
2018-01-05T00:08:52.725Z,1.00
2018-01-05T00:11:18.987Z,1.00
2018-01-05T00:13:45.403Z,1.20
2018-01-05T00:16:11.677Z,1.07
2018-01-05T00:18:37.906Z,0.93
2018-01-05T00:21:04.219Z,0.90
2018-01-05T00:23:31.227Z,1.10
2018-01-05T00:25:57.531Z,1.10
2018-01-05T00:28:23.764Z,0.60
2018-01-05T00:30:50.020Z,1.23
2018-01-05T00:33:16.244Z,1.07
2018-01-05T00:35:42.499Z,2.20
2018-01-05T00:38:08.729Z,2.10
2018-01-05T00:40:35.805Z,1.10
2018-01-05T00:43:02.039Z,1.00
2018-01-05T00:45:28.311Z,2.07
2018-01-05T00:47:54.557Z,1.80
2018-01-05T00:50:20.828Z,2.07
2018-01-05T00:52:47.096Z,0.90
2018-01-05T00:55:13.341Z,1.47
2018-01-05T00:57:39.614Z,1.40
2018-01-05T01:00:05.891Z,1.37
2018-01-05T01:02:32.206Z,1.40
2018-01-05T01:04:58.474Z,1.00
2018-01-05T01:07:25.496Z,1.13
2018-01-05T01:09:51.737Z,1.60
2018-01-05T01:12:18.044Z,1.10
2018-01-05T01:14:44.339Z,2.00
2018-01-05T01:17:10.596Z,1.20
2018-01-05T01:19:36.870Z,1.37
2018-01-05T01:22:03.104Z,1.70
2018-01-05T01:24:30.112Z,1.40
2018-01-05T01:26:56.348Z,1.60
2018-01-05T01:29:22.588Z,1.93
2018-01-05T01:31:48.864Z,1.40
2018-01-05T01:34:15.112Z,1.43
2018-01-05T01:36:41.422Z,1.63
2018-01-05T01:39:08.389Z,1.57
2018-01-05T01:41:34.675Z,1.77
2018-01-05T01:44:01.681Z,3.00
2018-01-05T01:46:27.935Z,1.60
2018-01-05T01:48:54.988Z,2.33
2018-01-05T01:51:21.237Z,2.40
2018-01-05T01:53:48.281Z,2.10
2018-01-05T01:56:15.279Z,2.23
2018-01-05T01:58:41.577Z,2.87
2018-01-05T02:01:07.898Z,2.10
2018-01-05T02:03:34.983Z,2.23
2018-01-05T02:06:01.250Z,2.63
2018-01-05T02:08:27.580Z,1.60
2018-01-05T02:10:53.851Z,1.60
2018-01-05T02:13:20.094Z,2.57
2018-01-05T02:15:46.416Z,3.80
2018-01-05T02:18:12.668Z,2.70
2018-01-05T02:20:38.946Z,2.00
2018-01-05T02:23:05.913Z,2.00
2018-01-05T02:25:32.978Z,2.97
2018-01-05T02:27:59.331Z,1.90
2018-01-05T02:30:25.640Z,2.67
2018-01-05T02:32:51.919Z,2.17
2018-01-05T02:35:18.155Z,2.03
2018-01-05T02:37:44.411Z,2.13
2018-01-05T02:40:10.646Z,2.20
2018-01-05T02:42:36.989Z,2.23
2018-01-05T02:45:03.248Z,2.43
2018-01-05T02:47:29.483Z,4.63
2018-01-05T02:49:55.757Z,2.60
2018-01-05T02:52:22.812Z,2.83
2018-01-05T02:54:49.059Z,3.40
2018-01-05T02:57:15.353Z,2.83
2018-01-05T02:59:42.377Z,2.23
2018-01-05T03:02:08.670Z,2.57
2018-01-05T03:04:34.963Z,4.43
2018-01-05T03:07:02.094Z,2.97
2018-01-05T03:09:28.396Z,2.70
2018-01-05T03:11:54.692Z,2.10
2018-01-05T03:14:21.032Z,1.83
2018-01-05T03:16:47.276Z,2.50
2018-01-05T03:19:13.554Z,2.47
2018-01-05T03:21:39.890Z,2.00
2018-01-05T03:24:07.882Z,3.00
2018-01-05T03:26:34.173Z,2.20
2018-01-05T03:29:00.426Z,2.13
2018-01-05T03:31:27.467Z,2.10
2018-01-05T03:33:54.759Z,1.97
2018-01-05T03:36:21.069Z,2.23
2018-01-05T03:38:48.063Z,2.33
2018-01-05T03:41:14.353Z,2.17
2018-01-05T03:43:40.659Z,2.07
2018-01-05T03:46:08.040Z,2.20
2018-01-05T03:48:34.290Z,2.40
2018-01-05T03:51:00.596Z,3.03
2018-01-05T03:53:26.844Z,2.80
2018-01-05T03:55:53.136Z,2.63
2018-01-05T03:58:20.092Z,2.53
2018-01-05T04:00:47.128Z,3.10
2018-01-05T04:03:14.108Z,2.47
2018-01-05T04:05:40.386Z,2.90
2018-01-05T04:08:06.640Z,2.50
2018-01-05T04:10:33.706Z,2.63
2018-01-05T04:13:00.004Z,2.47
2018-01-05T04:15:26.301Z,1.90
2018-01-05T04:17:52.534Z,2.30
2018-01-05T04:20:18.811Z,1.83
2018-01-05T04:22:45.875Z,3.00
2018-01-05T04:25:12.162Z,1.90
2018-01-05T04:27:38.435Z,2.57
2018-01-05T04:32:39.357Z,1.67
2018-01-05T04:35:05.672Z,2.13
2018-01-05T04:37:32.011Z,2.23
2018-01-05T04:39:58.359Z,4.33
2018-01-05T04:42:25.371Z,1.90
2018-01-05T04:44:51.639Z,3.43
2018-01-05T04:47:18.669Z,2.27
2018-01-05T04:49:45.003Z,2.30
2018-01-05T04:52:11.251Z,4.33
2018-01-05T04:54:38.287Z,3.30
2018-01-05T04:57:04.612Z,2.40
2018-01-05T04:59:30.857Z,2.93
2018-01-05T05:01:57.901Z,2.83
2018-01-05T05:04:24.947Z,2.53
2018-01-05T05:06:51.932Z,3.10
2018-01-05T05:09:18.209Z,3.03
2018-01-05T05:11:44.510Z,3.17
2018-01-05T05:14:10.808Z,2.33
2018-01-05T05:16:37.119Z,2.60
2018-01-05T05:19:04.147Z,2.47
2018-01-05T05:21:37.367Z,2.93
2018-01-05T05:24:04.363Z,1.90
2018-01-05T05:26:30.654Z,2.43
2018-01-05T05:28:56.919Z,2.87
2018-01-05T05:31:23.253Z,2.87
2018-01-05T05:33:49.561Z,3.10
2018-01-05T05:36:15.871Z,2.73
2018-01-05T05:38:42.170Z,3.47
2018-01-05T05:41:08.453Z,2.67
2018-01-05T05:43:35.326Z,3.20
2018-01-05T05:46:01.600Z,2.93
2018-01-05T05:48:28.635Z,2.47
2018-01-05T05:50:54.921Z,3.40
2018-01-05T05:53:21.195Z,2.80
2018-01-05T05:55:48.230Z,2.00
2018-01-05T05:58:14.476Z,2.73
2018-01-05T06:00:41.610Z,3.10
2018-01-05T06:03:07.876Z,3.97
2018-01-05T06:05:35.033Z,2.83
2018-01-05T06:08:01.329Z,2.10
2018-01-05T06:10:27.635Z,2.90
2018-01-05T06:12:53.917Z,2.03
2018-01-05T06:15:20.735Z,2.57
2018-01-05T06:17:47.835Z,2.30
2018-01-05T06:20:14.101Z,2.90
2018-01-05T06:22:40.369Z,2.27
2018-01-05T06:25:06.670Z,2.93
2018-01-05T06:27:32.971Z,2.57
2018-01-05T06:29:59.247Z,1.93
2018-01-05T06:32:26.312Z,3.53
2018-01-05T06:34:52.562Z,2.50
2018-01-05T06:37:18.910Z,2.80
2018-01-05T06:39:45.158Z,2.30
2018-01-05T06:42:11.440Z,3.10
2018-01-05T06:44:37.715Z,2.30
2018-01-05T06:47:03.976Z,2.00
2018-01-05T06:49:30.998Z,3.23
2018-01-05T06:51:57.319Z,2.63
2018-01-05T06:54:23.580Z,2.37
2018-01-05T06:56:50.616Z,2.60
2018-01-05T06:59:16.882Z,2.90
2018-01-05T07:01:43.170Z,2.30
2018-01-05T07:04:09.506Z,2.47
2018-01-05T07:06:35.798Z,3.23
2018-01-05T07:09:02.081Z,2.40
2018-01-05T07:11:29.400Z,2.50
2018-01-05T07:13:55.651Z,2.30
2018-01-05T07:16:22.693Z,2.50
2018-01-05T07:18:49.133Z,2.20
2018-01-05T07:21:15.695Z,2.60
2018-01-05T07:23:42.141Z,3.67
2018-01-05T07:26:08.747Z,2.80
2018-01-05T07:28:35.815Z,2.53
2018-01-05T07:31:02.078Z,2.23
2018-01-05T07:33:28.420Z,4.03
2018-01-05T07:35:54.695Z,2.43
2018-01-05T07:38:21.722Z,2.83
2018-01-05T07:40:48.034Z,2.80
2018-01-05T07:43:14.459Z,2.60
2018-01-05T07:45:40.744Z,1.93
2018-01-05T07:48:07.905Z,4.13
2018-01-05T07:50:34.257Z,3.63
2018-01-05T07:53:00.776Z,2.60
2018-01-05T07:55:27.040Z,2.40
2018-01-05T07:57:53.309Z,2.60
2018-01-05T08:00:20.326Z,2.43
2018-01-05T08:02:46.647Z,2.50
2018-01-05T08:05:12.927Z,5.23
2018-01-05T08:07:39.934Z,2.20
2018-01-05T08:10:06.216Z,1.53
2018-01-05T08:12:32.473Z,2.07
2018-01-05T08:14:58.721Z,2.77
2018-01-05T08:17:25.071Z,1.77
2018-01-05T08:19:52.089Z,1.80
2018-01-05T08:22:18.345Z,2.77
2018-01-05T08:24:44.651Z,1.97
2018-01-05T08:27:10.909Z,1.80
2018-01-05T08:29:37.197Z,3.23
2018-01-05T08:32:03.480Z,1.80
2018-01-05T08:34:29.760Z,2.20
2018-01-05T08:36:56.042Z,2.03
2018-01-05T08:39:23.036Z,2.40
2018-01-05T08:41:49.344Z,2.50
2018-01-05T08:44:15.640Z,2.20
2018-01-05T08:46:42.122Z,2.87
2018-01-05T08:49:08.394Z,2.00
2018-01-05T08:51:34.674Z,2.10
2018-01-05T08:54:00.964Z,2.40
2018-01-05T08:56:27.233Z,3.70
2018-01-05T08:58:53.504Z,1.83
2018-01-05T09:01:20.026Z,1.70
2018-01-05T09:03:46.402Z,1.83
2018-01-05T09:06:13.457Z,1.93
2018-01-05T09:08:40.506Z,1.40
2018-01-05T09:11:06.841Z,1.90
2018-01-05T09:13:33.863Z,2.17
2018-01-05T09:16:00.202Z,2.20
2018-01-05T09:18:26.495Z,1.37
2018-01-05T09:20:52.830Z,3.03
2018-01-05T09:23:20.147Z,2.70
2018-01-05T09:25:46.643Z,1.93
2018-01-05T09:28:13.656Z,2.47
2018-01-05T09:30:40.001Z,1.73
2018-01-05T09:33:06.366Z,2.37
2018-01-05T09:35:32.764Z,1.70
2018-01-05T09:37:59.084Z,1.90
2018-01-05T09:40:25.364Z,2.33
2018-01-05T09:42:52.422Z,1.43
2018-01-05T09:45:19.455Z,2.00
2018-01-05T09:47:46.571Z,2.40
2018-01-05T09:50:12.869Z,1.20
2018-01-05T09:52:39.196Z,1.77
2018-01-05T09:55:05.478Z,2.00
2018-01-05T09:57:31.793Z,1.90
2018-01-05T09:59:58.093Z,2.70
2018-01-05T10:02:24.467Z,1.80
2018-01-05T10:04:50.783Z,1.77
2018-01-05T10:07:17.103Z,2.97
2018-01-05T10:09:43.448Z,2.20
2018-01-05T10:12:10.937Z,2.50
2018-01-05T10:14:37.237Z,2.07
2018-01-05T10:17:03.646Z,1.50
2018-01-05T10:19:30.036Z,1.73
2018-01-05T10:21:57.158Z,1.93
2018-01-05T10:24:23.526Z,2.27
2018-01-05T10:26:50.636Z,1.87
2018-01-05T10:29:17.070Z,1.70
2018-01-05T10:31:43.406Z,1.57
2018-01-05T10:34:09.771Z,1.63
2018-01-05T10:36:36.858Z,1.50
2018-01-05T10:39:03.169Z,1.50
2018-01-05T10:41:29.780Z,1.70
2018-01-05T10:43:56.665Z,1.80
2018-01-05T10:46:23.136Z,2.30
2018-01-05T10:48:49.439Z,1.63
2018-01-05T10:51:15.919Z,2.00
2018-01-05T10:53:42.309Z,1.50
2018-01-05T10:56:08.631Z,1.63
2018-01-05T10:58:35.120Z,1.70
2018-01-05T11:01:02.175Z,1.53
2018-01-05T11:03:29.277Z,1.00
2018-01-05T11:05:55.591Z,1.60
2018-01-05T11:08:21.930Z,1.90
2018-01-05T11:10:48.199Z,1.27
2018-01-05T11:13:14.549Z,1.37
2018-01-05T11:15:41.520Z,1.40
2018-01-05T11:18:07.892Z,1.60
2018-01-05T11:20:34.184Z,1.27
2018-01-05T11:23:00.517Z,1.87
2018-01-05T11:25:26.814Z,1.40
2018-01-05T11:27:53.866Z,1.30
2018-01-05T11:30:20.850Z,1.33
2018-01-05T11:32:47.150Z,1.40
2018-01-05T11:35:14.204Z,1.87
2018-01-05T11:37:40.519Z,1.10
2018-01-05T11:40:07.533Z,1.23
2018-01-05T11:42:33.826Z,1.70
2018-01-05T11:45:00.127Z,0.80
2018-01-05T11:47:26.479Z,1.53
2018-01-05T11:49:53.503Z,1.13
2018-01-05T11:52:20.521Z,1.30
2018-01-05T11:54:46.823Z,0.80
2018-01-05T11:57:13.095Z,1.47
2018-01-05T11:59:39.501Z,1.70
2018-01-05T12:02:05.938Z,0.67
2018-01-05T12:04:32.210Z,1.10
2018-01-05T12:06:58.471Z,1.17
2018-01-05T12:09:24.780Z,1.17
2018-01-05T12:11:51.819Z,1.20
2018-01-05T12:14:18.056Z,1.27
2018-01-05T12:16:45.124Z,1.00
2018-01-05T12:19:11.446Z,1.50
2018-01-05T12:21:38.503Z,2.00
2018-01-05T12:24:04.737Z,1.30
2018-01-05T12:26:31.068Z,1.60
2018-01-05T12:28:57.380Z,1.43
2018-01-05T12:31:24.457Z,1.37
2018-01-05T12:33:50.722Z,1.90
2018-01-05T12:36:17.003Z,1.43
2018-01-05T12:38:43.297Z,1.33
2018-01-05T12:41:09.559Z,1.97
2018-01-05T12:43:35.897Z,1.60
2018-01-05T12:46:02.213Z,1.43
2018-01-05T12:48:29.249Z,1.43
2018-01-05T12:50:56.247Z,1.40
2018-01-05T12:53:22.515Z,1.00
2018-01-05T12:55:48.855Z,1.60
2018-01-05T12:58:15.899Z,1.67
2018-01-05T13:00:42.159Z,1.50
2018-01-05T13:03:08.465Z,1.60
2018-01-05T13:05:35.541Z,1.37
2018-01-05T13:08:01.832Z,1.60
2018-01-05T13:10:28.181Z,2.37
2018-01-05T13:12:55.204Z,1.57
2018-01-05T13:15:21.461Z,2.30
2018-01-05T13:17:48.520Z,2.03
2018-01-05T13:20:14.970Z,1.60
2018-01-05T13:22:41.268Z,1.33
2018-01-05T13:25:08.288Z,1.60
2018-01-05T13:27:34.653Z,1.50
2018-01-05T13:30:01.706Z,1.60
2018-01-05T13:32:28.747Z,1.50
2018-01-05T13:34:55.781Z,2.17
2018-01-05T13:37:22.112Z,1.80
2018-01-05T13:39:49.191Z,2.27
2018-01-05T13:42:15.501Z,1.63
2018-01-05T13:44:42.761Z,1.20
2018-01-05T13:47:10.713Z,1.63
2018-01-05T13:49:37.500Z,1.70
2018-01-05T13:52:04.094Z,1.17
2018-01-05T13:54:31.493Z,0.90
2018-01-05T13:56:58.056Z,1.53
2018-01-05T13:59:24.335Z,1.07
2018-01-05T14:01:51.559Z,1.23
2018-01-05T14:04:19.616Z,1.20
2018-01-05T14:06:46.085Z,1.47
2018-01-05T14:09:13.370Z,1.33
2018-01-05T14:11:39.742Z,1.20
2018-01-05T14:14:06.433Z,0.90
2018-01-05T14:16:33.492Z,0.90
2018-01-05T14:19:00.691Z,0.87
2018-01-05T14:21:27.260Z,1.13
2018-01-05T14:23:53.770Z,1.00
2018-01-05T14:26:20.250Z,1.13
2018-01-05T14:28:46.556Z,1.37
2018-01-05T14:31:13.572Z,0.83
2018-01-05T14:33:41.334Z,1.10
2018-01-05T14:36:08.547Z,0.80
2018-01-05T14:38:35.493Z,0.80
2018-01-05T14:41:01.812Z,0.80
2018-01-05T14:43:28.547Z,0.80
2018-01-05T14:45:56.208Z,1.10
2018-01-05T14:48:23.682Z,1.10
2018-01-05T14:50:50.832Z,0.70
2018-01-05T14:53:17.920Z,0.80
2018-01-05T14:55:44.302Z,1.10
2018-01-05T14:58:17.482Z,1.00
2018-01-05T15:00:44.552Z,0.73
2018-01-05T15:03:10.881Z,0.87
2018-01-05T15:05:37.502Z,0.87
2018-01-05T15:08:04.570Z,0.97
2018-01-05T15:10:31.188Z,1.00
2018-01-05T15:12:58.246Z,1.33
2018-01-05T15:15:24.652Z,1.20
2018-01-05T15:17:50.952Z,0.80
2018-01-05T15:20:17.280Z,0.97
2018-01-05T15:22:43.604Z,1.10
2018-01-05T15:25:09.846Z,0.90
2018-01-05T15:27:36.173Z,0.80
2018-01-05T15:30:02.843Z,1.40
2018-01-05T15:32:30.268Z,1.00
2018-01-05T15:34:57.305Z,1.17
2018-01-05T15:37:24.212Z,1.10
2018-01-05T15:39:50.511Z,0.90
2018-01-05T15:42:17.625Z,1.20
2018-01-05T15:44:43.952Z,0.90
2018-01-05T15:47:11.326Z,1.20
2018-01-05T15:49:42.081Z,1.30
2018-01-05T15:52:08.692Z,1.30
2018-01-05T15:54:35.726Z,1.37
2018-01-05T15:57:02.079Z,0.93
2018-01-05T15:59:28.423Z,1.10
2018-01-05T16:01:55.493Z,0.73
2018-01-05T16:04:22.565Z,1.27
2018-01-05T16:06:49.902Z,0.87
2018-01-05T16:09:23.281Z,1.20
2018-01-05T16:11:49.607Z,1.10
2018-01-05T16:14:15.970Z,1.30
2018-01-05T16:16:46.575Z,1.00
2018-01-05T16:19:12.859Z,0.90
2018-01-05T16:21:39.269Z,0.93
2018-01-05T16:24:06.276Z,1.10
2018-01-05T16:26:32.653Z,1.07
2018-01-05T16:28:59.686Z,1.10
2018-01-05T16:31:26.740Z,1.10
2018-01-05T16:33:53.752Z,0.80
2018-01-05T16:36:22.096Z,1.10
2018-01-05T16:38:55.598Z,1.50
2018-01-05T16:41:22.942Z,1.57
2018-01-05T16:43:49.213Z,1.60
2018-01-05T16:46:15.558Z,2.37
2018-01-05T16:48:41.828Z,2.07
2018-01-05T16:51:08.101Z,2.30
2018-01-05T16:53:45.560Z,2.13
2018-01-05T16:56:12.794Z,2.73
2018-01-05T16:58:39.082Z,2.43
2018-01-05T17:01:05.437Z,2.20
2018-01-05T17:03:31.766Z,2.00
2018-01-05T17:05:59.815Z,2.07
2018-01-05T17:08:26.095Z,2.17
2018-01-05T17:10:52.384Z,2.73
2018-01-05T17:13:18.728Z,2.23
2018-01-05T17:15:46.801Z,2.70
2018-01-05T17:18:13.108Z,2.07
2018-01-05T17:20:40.422Z,1.70
2018-01-05T17:23:08.910Z,3.00
2018-01-05T17:25:35.194Z,1.97
2018-01-05T17:28:01.660Z,2.87
2018-01-05T17:30:27.967Z,1.57
2018-01-05T17:32:55.060Z,1.73
2018-01-05T17:35:21.400Z,2.03
2018-01-05T17:37:47.698Z,1.53
2018-01-05T17:40:13.986Z,2.53
2018-01-05T17:42:42.360Z,2.00
2018-01-05T17:45:10.092Z,1.70
2018-01-05T17:47:36.391Z,1.67
2018-01-05T17:50:02.692Z,1.40
2018-01-05T17:52:28.995Z,1.40
2018-01-05T17:54:55.278Z,1.10
2018-01-05T17:57:22.309Z,1.23
2018-01-05T17:59:49.315Z,1.80
2018-01-05T18:02:15.876Z,1.17
2018-01-05T18:04:42.158Z,0.90
2018-01-05T18:07:08.490Z,1.70
2018-01-05T18:09:34.943Z,1.30
2018-01-05T18:12:01.214Z,1.17
2018-01-05T18:14:27.532Z,1.40
2018-01-05T18:16:53.823Z,1.30
2018-01-05T18:19:20.138Z,1.30
2018-01-05T18:21:46.462Z,1.30
2018-01-05T18:24:13.618Z,1.20
2018-01-05T18:26:39.904Z,1.20
2018-01-05T18:29:06.225Z,1.20
2018-01-05T18:31:32.780Z,1.87
2018-01-05T18:33:59.817Z,1.10
2018-01-05T18:36:26.090Z,1.17
2018-01-05T18:38:53.282Z,1.23
2018-01-05T18:41:19.657Z,1.10
2018-01-05T18:43:46.232Z,1.33
2018-01-05T18:46:12.979Z,0.90
2018-01-05T18:48:39.319Z,1.27
2018-01-05T18:51:05.723Z,1.17
2018-01-05T18:53:32.916Z,1.33
2018-01-05T18:55:59.451Z,0.90
2018-01-05T18:58:25.791Z,1.00
2018-01-05T19:00:52.241Z,0.93
2018-01-05T19:03:18.653Z,1.13
2018-01-05T19:05:45.047Z,1.20
2018-01-05T19:08:12.624Z,1.20
2018-01-05T19:10:40.039Z,1.40
2018-01-05T19:13:10.618Z,1.50
2018-01-05T19:15:37.029Z,1.27
2018-01-05T19:18:03.567Z,1.57
2018-01-05T19:20:29.941Z,1.30
2018-01-05T19:22:56.621Z,1.13
2018-01-05T19:25:24.053Z,2.30
2018-01-05T19:27:50.948Z,3.17
2018-01-05T19:30:17.735Z,2.40
2018-01-05T19:32:44.309Z,1.67
2018-01-05T19:35:10.746Z,1.50
2018-01-05T19:37:37.252Z,1.40
2018-01-05T19:40:04.548Z,1.40
2018-01-05T19:42:31.081Z,1.17
2018-01-05T19:44:58.524Z,1.73
2018-01-05T19:47:25.187Z,1.30
2018-01-05T19:49:51.815Z,1.27
2018-01-05T19:52:18.249Z,1.17
2018-01-05T19:54:44.896Z,1.30
2018-01-05T19:57:11.705Z,1.93
2018-01-05T19:59:38.975Z,1.10
2018-01-05T20:02:05.347Z,1.23
2018-01-05T20:04:31.914Z,1.10
2018-01-05T20:06:58.315Z,1.50
2018-01-05T20:09:24.789Z,1.33
2018-01-05T20:11:51.929Z,1.53
2018-01-05T20:14:19.160Z,1.80
2018-01-05T20:16:45.552Z,1.10
2018-01-05T20:19:12.910Z,1.07
2018-01-05T20:21:47.044Z,1.00
2018-01-05T20:24:13.422Z,1.10
2018-01-05T20:26:40.616Z,1.37
2018-01-05T20:29:06.962Z,0.83
2018-01-05T20:31:33.311Z,1.40
2018-01-05T20:33:59.670Z,0.80
2018-01-05T20:36:26.110Z,1.20
2018-01-05T20:38:53.316Z,0.70
2018-01-05T20:41:19.990Z,0.80
2018-01-05T20:43:46.291Z,0.90
2018-01-05T20:46:12.845Z,0.80
2018-01-05T20:48:39.349Z,1.17
2018-01-05T20:51:06.760Z,0.97
2018-01-05T20:53:35.227Z,1.03
2018-01-05T20:56:01.587Z,1.00
2018-01-05T20:58:27.917Z,0.90
2018-01-05T21:01:00.270Z,1.13
2018-01-05T21:03:27.662Z,0.90
2018-01-05T21:05:54.065Z,1.20
2018-01-05T21:08:21.220Z,1.27
2018-01-05T21:10:49.283Z,1.00
2018-01-05T21:13:16.985Z,1.60
2018-01-05T21:15:43.849Z,1.03
2018-01-05T21:18:10.191Z,0.80
2018-01-05T21:20:37.442Z,0.63
2018-01-05T21:23:03.716Z,1.27
2018-01-05T21:25:31.056Z,0.70
2018-01-05T21:27:59.194Z,0.80
2018-01-05T21:30:25.544Z,0.90
2018-01-05T21:32:51.881Z,1.57
2018-01-05T21:35:18.988Z,1.40
2018-01-05T21:37:45.519Z,0.80
2018-01-05T21:40:11.846Z,0.80
2018-01-05T21:42:38.235Z,0.90
2018-01-05T21:45:05.389Z,1.00
2018-01-05T21:47:31.717Z,1.20
2018-01-05T21:49:58.206Z,1.30
2018-01-05T21:52:24.565Z,1.37
2018-01-05T21:54:50.926Z,1.20
2018-01-05T21:57:19.101Z,1.23
2018-01-05T21:59:46.157Z,1.50
2018-01-05T22:02:12.584Z,1.50
2018-01-05T22:04:39.706Z,1.23
2018-01-05T22:07:05.982Z,0.90
2018-01-05T22:09:33.004Z,0.93
2018-01-05T22:12:00.348Z,1.47
2018-01-05T22:14:26.703Z,1.00
2018-01-05T22:16:53.028Z,0.80
2018-01-05T22:19:19.282Z,1.20
2018-01-05T22:21:45.597Z,0.90
2018-01-05T22:24:12.637Z,0.60
2018-01-05T22:26:39.683Z,0.60
2018-01-05T22:29:06.683Z,1.47
2018-01-05T22:31:32.997Z,0.83
2018-01-05T22:33:59.357Z,0.70
2018-01-05T22:36:25.676Z,1.00
2018-01-05T22:38:52.013Z,0.60
2018-01-05T22:41:18.396Z,0.70
2018-01-05T22:43:48.632Z,0.70
2018-01-05T22:46:14.916Z,0.70
2018-01-05T22:48:41.230Z,0.80
2018-01-05T22:51:07.496Z,0.73
2018-01-05T22:53:34.550Z,0.60
2018-01-05T22:56:01.577Z,0.90
2018-01-05T22:58:27.876Z,1.07
2018-01-05T23:00:54.311Z,0.60
2018-01-05T23:03:20.659Z,0.60
2018-01-05T23:05:46.936Z,0.73
2018-01-05T23:08:13.937Z,1.07
2018-01-05T23:10:40.222Z,1.10
2018-01-05T23:13:06.543Z,0.60
2018-01-05T23:15:33.615Z,0.77
2018-01-05T23:17:59.845Z,0.73
2018-01-05T23:20:26.129Z,0.50
2018-01-05T23:22:52.390Z,0.60
2018-01-05T23:25:18.674Z,0.60
2018-01-05T23:30:30.776Z,0.83
2018-01-05T23:35:36.982Z,0.70
2018-01-05T23:38:03.277Z,0.60
2018-01-05T23:40:29.563Z,0.60
2018-01-05T23:42:56.541Z,0.70
2018-01-05T23:45:22.798Z,0.60
2018-01-05T23:47:49.100Z,0.70
2018-01-05T23:50:15.375Z,0.90
2018-01-05T23:52:41.652Z,0.63
2018-01-05T23:55:07.971Z,0.60
2018-01-05T23:57:34.281Z,0.70
